Time;durP1;ratioP1;P1;durP2;ratioP2;P2;SDS_P1;SDS_P2;PMS_P1;PMS_P2;Temp;Humidity;BMP_temperature;BMP_pressure;BME280_temperature;BME280_humidity;BME280_pressure;Samples;Min_cycle;Max_cycle;Signal;HPM_P1;HPM_P2
2024/01/31 00:00:24;;;;;;;16.47;10.30;;;7.60;99.90;;;;;;5054017;28;20183;-77
2024/01/31 00:02:49;;;;;;;14.03;9.57;;;7.50;99.90;;;;;;5054012;28;20187;-78
2024/01/31 00:05:15;;;;;;;14.97;9.80;;;7.60;99.90;;;;;;5037328;28;20221;-77
2024/01/31 00:07:44;;;;;;;16.10;9.93;;;7.60;99.90;;;;;;5071855;28;20179;-78
2024/01/31 00:10:11;;;;;;;14.30;10.17;;;7.60;99.90;;;;;;5036456;28;20563;-76
2024/01/31 00:12:37;;;;;;;14.13;9.70;;;7.60;99.90;;;;;;5070880;28;20522;-77
2024/01/31 00:15:03;;;;;;;11.97;8.53;;;7.50;99.90;;;;;;5071128;28;20453;-77
2024/01/31 00:17:29;;;;;;;15.57;9.47;;;7.40;99.90;;;;;;5052736;28;20282;-77
2024/01/31 00:19:54;;;;;;;12.60;7.57;;;7.40;99.90;;;;;;5070347;28;20553;-78
2024/01/31 00:22:20;;;;;;;12.43;9.30;;;7.40;99.90;;;;;;5052293;28;20188;-78
2024/01/31 00:24:45;;;;;;;15.90;8.07;;;7.50;99.90;;;;;;5071388;28;20179;-78
2024/01/31 00:27:11;;;;;;;12.90;7.30;;;7.50;99.90;;;;;;5071001;28;20186;-79
2024/01/31 00:29:37;;;;;;;13.57;8.03;;;7.50;99.90;;;;;;5036539;28;20698;-77
2024/01/31 00:32:03;;;;;;;10.47;8.20;;;7.50;99.90;;;;;;5071290;28;20201;-78
2024/01/31 00:34:29;;;;;;;14.50;8.70;;;7.50;99.90;;;;;;5071385;28;20453;-77
2024/01/31 00:36:54;;;;;;;15.60;8.80;;;7.50;99.90;;;;;;5037116;28;20610;-76
2024/01/31 00:39:20;;;;;;;11.90;7.97;;;7.50;99.90;;;;;;5053217;28;20429;-78
2024/01/31 00:41:47;;;;;;;14.73;8.03;;;7.50;99.90;;;;;;5070432;28;20764;-77
2024/01/31 00:44:13;;;;;;;16.00;8.37;;;7.50;99.90;;;;;;5055137;28;20247;-77
2024/01/31 00:46:44;;;;;;;9.30;6.90;;;7.30;99.90;;;;;;5052677;28;20422;-77
2024/01/31 00:49:10;;;;;;;13.23;8.60;;;7.30;99.90;;;;;;5071578;28;20453;-77
2024/01/31 00:51:36;;;;;;;11.20;7.73;;;7.30;99.90;;;;;;5054050;28;20429;-78
2024/01/31 00:54:01;;;;;;;13.13;7.20;;;7.30;99.90;;;;;;5072369;28;20226;-77
2024/01/31 00:56:27;;;;;;;10.90;7.43;;;7.30;99.90;;;;;;5052517;28;20183;-76
2024/01/31 00:58:52;;;;;;;8.87;6.70;;;7.40;99.90;;;;;;5069286;28;20203;-76
2024/01/31 01:01:18;;;;;;;12.27;8.40;;;7.40;99.90;;;;;;5070536;28;20179;-77
2024/01/31 01:03:44;;;;;;;10.30;7.50;;;7.50;99.90;;;;;;5070696;28;20183;-77
2024/01/31 01:06:09;;;;;;;11.57;7.77;;;7.50;99.90;;;;;;5070380;28;20503;-76
2024/01/31 01:08:35;;;;;;;12.60;8.53;;;7.50;99.90;;;;;;5051135;28;20218;-77
2024/01/31 01:11:01;;;;;;;9.10;6.93;;;7.50;99.90;;;;;;5068608;28;20198;-76
2024/01/31 01:13:26;;;;;;;13.17;8.60;;;7.50;99.90;;;;;;5052519;28;20282;-77
2024/01/31 01:15:52;;;;;;;11.50;8.10;;;7.60;99.90;;;;;;5072128;28;20268;-77
2024/01/31 01:18:18;;;;;;;15.47;8.27;;;7.70;99.90;;;;;;5054281;28;20630;-77
2024/01/31 01:20:44;;;;;;;10.43;7.73;;;7.60;99.90;;;;;;5072163;28;20262;-78
2024/01/31 01:23:11;;;;;;;12.20;8.50;;;7.80;99.90;;;;;;5054039;28;20222;-77
2024/01/31 01:25:37;;;;;;;11.67;8.53;;;7.80;99.90;;;;;;5053622;28;20996;-77
2024/01/31 01:28:02;;;;;;;13.37;8.07;;;7.80;99.90;;;;;;5068459;28;20549;-77
2024/01/31 01:30:28;;;;;;;14.13;8.90;;;7.90;99.90;;;;;;5017753;28;20558;-77
2024/01/31 01:32:54;;;;;;;13.43;7.90;;;7.90;99.90;;;;;;5068445;28;20191;-76
2024/01/31 01:35:19;;;;;;;11.57;8.00;;;7.90;99.90;;;;;;5050175;28;20245;-76
2024/01/31 01:37:45;;;;;;;11.20;7.70;;;7.90;99.90;;;;;;5050195;28;20194;-77
2024/01/31 01:40:11;;;;;;;14.50;8.40;;;7.90;99.90;;;;;;5050286;28;20183;-77
2024/01/31 01:42:40;;;;;;;11.73;8.43;;;7.90;99.90;;;;;;5068417;28;20190;-77
2024/01/31 01:45:07;;;;;;;11.70;7.63;;;7.90;99.90;;;;;;5068306;28;20444;-77
2024/01/31 01:47:33;;;;;;;11.67;7.63;;;7.90;99.90;;;;;;5068265;28;20421;-77
2024/01/31 01:50:02;;;;;;;13.20;7.67;;;7.90;99.90;;;;;;5068281;28;20449;-78
2024/01/31 01:52:27;;;;;;;11.73;8.00;;;7.90;99.90;;;;;;5068485;28;20432;-77
2024/01/31 01:54:53;;;;;;;7.93;5.90;;;7.80;99.90;;;;;;5068451;28;20465;-77
2024/01/31 01:57:19;;;;;;;8.77;7.40;;;7.80;99.90;;;;;;5068542;28;20190;-78
2024/01/31 01:59:45;;;;;;;8.07;5.60;;;7.80;99.90;;;;;;5050552;28;20551;-77
2024/01/31 02:02:12;;;;;;;8.67;6.17;;;7.90;99.90;;;;;;5068594;28;20512;-77
2024/01/31 02:04:38;;;;;;;7.63;5.50;;;8.00;99.90;;;;;;5069463;28;20856;-76
2024/01/31 02:07:04;;;;;;;7.50;6.03;;;8.00;99.90;;;;;;5049987;28;20429;-77
2024/01/31 02:09:30;;;;;;;13.43;7.50;;;8.00;99.90;;;;;;5049906;28;20482;-77
2024/01/31 02:11:55;;;;;;;9.13;6.40;;;8.00;99.90;;;;;;5068262;28;20434;-78
2024/01/31 02:14:21;;;;;;;10.47;5.87;;;8.00;99.90;;;;;;5068585;28;20883;-77
2024/01/31 02:16:47;;;;;;;9.03;6.10;;;8.20;99.90;;;;;;5068107;28;20791;-78
2024/01/31 02:19:12;;;;;;;8.30;7.17;;;8.10;99.90;;;;;;5068039;28;20207;-78
2024/01/31 02:21:41;;;;;;;11.40;7.00;;;8.30;99.90;;;;;;5049952;28;20333;-77
2024/01/31 02:24:07;;;;;;;10.13;6.43;;;8.10;99.90;;;;;;5071329;28;20186;-78
2024/01/31 02:26:32;;;;;;;10.00;6.17;;;8.10;99.90;;;;;;5054420;28;20436;-77
2024/01/31 02:28:58;;;;;;;7.87;6.40;;;8.10;99.90;;;;;;5054094;28;20210;-77
2024/01/31 02:31:23;;;;;;;13.47;6.83;;;8.10;99.90;;;;;;5054296;28;20191;-77
2024/01/31 02:33:49;;;;;;;13.20;7.17;;;8.10;99.90;;;;;;5054274;28;20581;-77
2024/01/31 02:36:15;;;;;;;9.20;6.80;;;8.10;99.90;;;;;;5054179;28;20183;-77
2024/01/31 02:38:40;;;;;;;7.80;6.20;;;8.20;99.90;;;;;;5036870;28;20226;-77
2024/01/31 02:41:07;;;;;;;12.07;6.57;;;8.20;99.90;;;;;;5037326;28;20282;-77
2024/01/31 02:43:33;;;;;;;7.63;6.07;;;8.30;99.90;;;;;;5072484;28;20763;-77
2024/01/31 02:45:58;;;;;;;13.33;6.10;;;8.30;99.90;;;;;;5072289;28;20425;-77
2024/01/31 02:48:24;;;;;;;11.83;7.30;;;8.40;99.90;;;;;;5054021;28;20203;-77
2024/01/31 02:50:49;;;;;;;10.83;6.27;;;8.30;99.90;;;;;;5074386;28;20283;-77
2024/01/31 02:53:15;;;;;;;12.07;6.27;;;8.30;99.90;;;;;;5040113;28;20607;-77
2024/01/31 02:55:41;;;;;;;9.73;6.07;;;8.30;99.90;;;;;;5036823;28;20230;-77
2024/01/31 02:58:07;;;;;;;8.50;6.37;;;8.30;99.90;;;;;;5071394;28;20199;-77
2024/01/31 03:00:33;;;;;;;9.13;6.53;;;8.40;99.90;;;;;;5071354;28;20232;-77
2024/01/31 03:02:58;;;;;;;8.27;6.30;;;8.40;99.90;;;;;;5071459;28;20417;-77
2024/01/31 03:05:24;;;;;;;6.20;5.60;;;8.40;99.90;;;;;;5053239;28;20189;-77
2024/01/31 03:07:49;;;;;;;7.70;5.33;;;8.40;99.90;;;;;;5053499;28;20191;-77
2024/01/31 03:10:15;;;;;;;10.40;6.93;;;8.60;99.90;;;;;;5036776;28;20195;-77
2024/01/31 03:12:41;;;;;;;9.70;6.10;;;8.40;99.90;;;;;;5071396;28;20219;-77
2024/01/31 03:15:06;;;;;;;7.47;5.60;;;8.40;99.90;;;;;;5071252;28;20203;-78
2024/01/31 03:17:35;;;;;;;10.03;5.70;;;8.40;99.90;;;;;;5071337;28;20596;-77
2024/01/31 03:20:03;;;;;;;9.13;6.30;;;8.60;99.90;;;;;;5052936;28;20199;-77
2024/01/31 03:22:29;;;;;;;8.73;6.00;;;8.50;99.90;;;;;;5071117;28;20413;-77
2024/01/31 03:24:55;;;;;;;9.27;6.33;;;8.50;99.90;;;;;;5070964;28;20854;-78
2024/01/31 03:27:20;;;;;;;9.60;6.33;;;8.50;99.90;;;;;;5020052;28;20433;-77
2024/01/31 03:29:46;;;;;;;10.87;5.50;;;8.50;99.90;;;;;;5053087;28;20206;-77
2024/01/31 03:32:11;;;;;;;8.83;5.30;;;8.50;99.90;;;;;;5053047;28;20549;-77
2024/01/31 03:34:37;;;;;;;8.07;5.40;;;8.50;99.90;;;;;;5070977;28;20211;-77
2024/01/31 03:37:05;;;;;;;8.30;5.57;;;8.60;99.90;;;;;;5052395;28;20199;-77
2024/01/31 03:39:31;;;;;;;6.90;5.20;;;8.60;99.90;;;;;;5074611;28;20611;-78
2024/01/31 03:41:57;;;;;;;7.40;5.70;;;8.70;99.90;;;;;;5038791;28;20422;-77
2024/01/31 03:44:22;;;;;;;10.97;6.00;;;8.60;99.90;;;;;;5073275;28;21001;-78
2024/01/31 03:46:48;;;;;;;9.30;6.03;;;8.50;99.90;;;;;;5073794;28;20190;-78
2024/01/31 03:49:13;;;;;;;8.70;5.80;;;8.50;99.90;;;;;;5054880;28;20207;-77
2024/01/31 03:51:39;;;;;;;8.70;5.57;;;8.30;99.90;;;;;;5053639;28;20286;-76
2024/01/31 03:54:05;;;;;;;11.00;5.70;;;8.30;99.90;;;;;;5070760;28;20578;-77
2024/01/31 03:56:30;;;;;;;7.23;5.63;;;8.20;99.90;;;;;;5053168;28;20187;-77
2024/01/31 03:58:56;;;;;;;5.80;4.63;;;8.20;99.90;;;;;;5071373;28;20211;-77
2024/01/31 04:01:21;;;;;;;9.00;6.03;;;8.20;99.90;;;;;;5071263;28;20186;-78
2024/01/31 04:03:47;;;;;;;6.90;5.07;;;8.20;99.90;;;;;;5052497;28;20187;-77
2024/01/31 04:06:13;;;;;;;6.73;5.20;;;8.20;99.90;;;;;;5052613;28;20259;-77
2024/01/31 04:08:38;;;;;;;6.73;5.00;;;8.30;99.90;;;;;;5070454;28;20247;-77
2024/01/31 04:11:04;;;;;;;6.03;4.87;;;8.40;99.90;;;;;;5054525;28;20289;-77
2024/01/31 04:13:30;;;;;;;8.33;5.63;;;8.40;99.90;;;;;;5070606;28;20218;-77
2024/01/31 04:15:57;;;;;;;7.80;4.60;;;8.40;99.90;;;;;;5070184;28;20468;-76
2024/01/31 04:18:23;;;;;;;8.70;5.30;;;8.50;99.90;;;;;;5070195;28;20852;-77
2024/01/31 04:20:49;;;;;;;11.50;5.13;;;8.50;99.90;;;;;;5070627;28;20415;-77
2024/01/31 04:23:15;;;;;;;7.93;5.43;;;8.30;99.90;;;;;;5070134;28;20417;-76
2024/01/31 04:25:41;;;;;;;8.10;4.60;;;8.50;99.90;;;;;;5051985;28;20437;-77
2024/01/31 04:28:06;;;;;;;7.10;5.10;;;8.40;99.90;;;;;;5072720;28;20474;-78
2024/01/31 04:30:32;;;;;;;14.00;5.47;;;8.50;99.90;;;;;;5072289;28;20223;-77
2024/01/31 04:33:01;;;;;;;7.30;5.57;;;8.40;99.90;;;;;;5037748;28;20562;-78
2024/01/31 04:35:28;;;;;;;9.93;6.90;;;8.30;99.90;;;;;;5053259;28;20221;-78
2024/01/31 04:37:54;;;;;;;9.07;6.40;;;8.10;99.90;;;;;;5036743;28;20468;-78
2024/01/31 04:40:19;;;;;;;12.03;6.40;;;8.00;99.90;;;;;;5036555;28;20429;-78
2024/01/31 04:42:47;;;;;;;12.67;6.53;;;7.90;99.90;;;;;;5070221;28;20249;-79
2024/01/31 04:45:13;;;;;;;14.80;7.20;;;7.90;99.90;;;;;;5070905;28;20217;-78
2024/01/31 04:47:41;;;;;;;9.33;7.20;;;7.80;99.90;;;;;;5070869;28;20435;-78
2024/01/31 04:50:07;;;;;;;12.33;7.27;;;7.70;99.90;;;;;;5070962;28;20799;-79
2024/01/31 04:52:33;;;;;;;11.60;7.20;;;7.70;99.90;;;;;;5053761;28;20425;-77
2024/01/31 04:54:59;;;;;;;13.00;8.03;;;7.60;99.90;;;;;;5071023;28;20210;-78
2024/01/31 04:57:24;;;;;;;11.53;8.70;;;7.50;99.90;;;;;;5052513;28;20207;-78
2024/01/31 04:59:50;;;;;;;14.10;9.00;;;7.40;99.90;;;;;;5036092;28;20473;-77
2024/01/31 05:02:16;;;;;;;21.70;9.07;;;7.40;99.90;;;;;;5052913;28;20188;-78
2024/01/31 05:04:41;;;;;;;13.73;9.87;;;7.40;99.90;;;;;;5071272;28;20187;-77
2024/01/31 05:07:07;;;;;;;14.73;8.50;;;7.30;99.90;;;;;;5053109;28;20730;-78
2024/01/31 05:09:33;;;;;;;21.80;8.50;;;7.30;99.90;;;;;;5052008;28;20207;-77
2024/01/31 05:11:58;;;;;;;11.47;8.33;;;7.30;99.90;;;;;;5052088;28;20433;-77
2024/01/31 05:14:27;;;;;;;13.27;9.10;;;7.30;99.90;;;;;;5070229;28;20756;-77
2024/01/31 05:16:52;;;;;;;14.70;10.03;;;7.30;99.90;;;;;;5052932;28;20184;-78
2024/01/31 05:19:18;;;;;;;15.33;9.30;;;7.20;99.90;;;;;;5070450;28;20546;-77
2024/01/31 05:21:49;;;;;;;12.70;9.57;;;7.20;99.90;;;;;;5036359;28;20685;-77
2024/01/31 05:24:16;;;;;;;13.67;8.83;;;7.30;99.90;;;;;;5052436;28;20186;-77
2024/01/31 05:26:43;;;;;;;13.97;9.40;;;7.20;99.90;;;;;;5069406;28;20791;-78
2024/01/31 05:29:08;;;;;;;15.07;9.50;;;7.20;99.90;;;;;;5067846;28;20444;-77
2024/01/31 05:31:34;;;;;;;14.67;8.40;;;7.20;99.90;;;;;;5067910;28;20417;-76
2024/01/31 05:34:00;;;;;;;12.83;8.60;;;7.20;99.90;;;;;;5067747;28;20187;-77
2024/01/31 05:36:25;;;;;;;13.50;9.60;;;7.20;99.90;;;;;;5049670;28;20179;-77
2024/01/31 05:38:51;;;;;;;15.03;8.43;;;7.20;99.90;;;;;;5067738;28;20199;-76
2024/01/31 05:41:17;;;;;;;9.73;8.27;;;7.20;99.90;;;;;;5068013;28;20296;-76
2024/01/31 05:43:42;;;;;;;13.30;8.97;;;7.20;99.90;;;;;;5068346;28;20178;-75
2024/01/31 05:46:08;;;;;;;12.60;8.53;;;7.20;99.90;;;;;;5068508;28;20409;-77
2024/01/31 05:48:34;;;;;;;15.57;9.70;;;7.20;99.90;;;;;;5068745;28;20285;-78
2024/01/31 05:50:59;;;;;;;15.33;9.13;;;7.20;99.90;;;;;;5050389;28;20195;-78
2024/01/31 05:53:25;;;;;;;14.60;8.97;;;7.20;99.90;;;;;;5034111;28;20553;-78
2024/01/31 05:55:50;;;;;;;18.40;11.30;;;7.20;99.90;;;;;;5068692;28;20230;-77
2024/01/31 05:58:19;;;;;;;13.90;10.20;;;7.20;99.90;;;;;;5067797;28;20202;-78
2024/01/31 06:00:46;;;;;;;18.67;12.23;;;7.10;99.90;;;;;;5050312;28;20191;-77
2024/01/31 06:03:12;;;;;;;13.77;9.90;;;7.10;99.90;;;;;;5068270;28;20417;-78
2024/01/31 06:05:37;;;;;;;14.47;9.20;;;7.10;99.90;;;;;;5050080;28;20425;-78
2024/01/31 06:08:03;;;;;;;14.73;8.33;;;7.10;99.90;;;;;;5033483;28;20203;-77
2024/01/31 06:10:29;;;;;;;14.87;7.93;;;6.90;99.90;;;;;;5050135;28;20187;-76
2024/01/31 06:12:54;;;;;;;12.83;7.10;;;6.80;99.90;;;;;;5068033;28;20425;-77
2024/01/31 06:15:24;;;;;;;9.40;6.70;;;7.00;99.90;;;;;;5067779;28;20199;-77
2024/01/31 06:17:49;;;;;;;12.67;7.33;;;7.10;99.90;;;;;;5033185;28;20253;-78
2024/01/31 06:20:15;;;;;;;10.23;5.87;;;7.10;99.90;;;;;;5068107;28;21080;-77
2024/01/31 06:22:41;;;;;;;8.73;6.90;;;7.20;99.90;;;;;;5016845;28;20186;-77
2024/01/31 06:25:07;;;;;;;10.27;6.30;;;7.40;99.90;;;;;;5068050;28;20673;-78
2024/01/31 06:27:34;;;;;;;9.67;5.50;;;7.50;99.90;;;;;;5067197;28;20308;-78
2024/01/31 06:30:00;;;;;;;5.70;5.00;;;7.60;99.90;;;;;;5067652;28;20451;-78
2024/01/31 06:32:31;;;;;;;9.47;5.63;;;8.00;99.90;;;;;;5068274;28;20417;-76
2024/01/31 06:34:57;;;;;;;8.47;5.00;;;7.90;99.90;;;;;;5067075;28;20237;-77
2024/01/31 06:37:23;;;;;;;12.20;8.47;;;7.90;99.90;;;;;;5066641;28;20908;-77
2024/01/31 06:39:48;;;;;;;15.37;8.07;;;7.90;99.90;;;;;;5066603;28;20722;-78
2024/01/31 06:42:14;;;;;;;12.00;7.73;;;8.00;99.90;;;;;;5067348;28;20281;-78
2024/01/31 06:44:40;;;;;;;12.13;7.20;;;7.70;99.90;;;;;;5066958;28;20470;-78
2024/01/31 06:47:05;;;;;;;9.70;7.00;;;7.70;99.90;;;;;;5032833;28;20999;-78
2024/01/31 06:49:31;;;;;;;11.20;7.90;;;7.60;99.90;;;;;;5050063;28;20214;-76
2024/01/31 06:51:57;;;;;;;16.93;10.30;;;7.50;99.90;;;;;;5015333;28;20191;-75
2024/01/31 06:54:23;;;;;;;15.60;9.17;;;7.40;99.90;;;;;;5048259;28;20465;-79
2024/01/31 06:56:48;;;;;;;17.70;9.50;;;7.40;99.90;;;;;;5067355;28;20217;-78
2024/01/31 06:59:14;;;;;;;17.90;10.43;;;7.40;99.90;;;;;;5049303;28;20301;-77
2024/01/31 07:01:39;;;;;;;11.43;8.43;;;7.30;99.90;;;;;;5067528;28;20191;-78
2024/01/31 07:04:05;;;;;;;17.10;8.77;;;7.30;99.90;;;;;;5068038;28;20765;-78
2024/01/31 07:06:30;;;;;;;12.47;9.33;;;7.30;99.90;;;;;;5049792;28;20270;-78
2024/01/31 07:08:56;;;;;;;18.60;12.13;;;7.30;99.90;;;;;;5067824;28;20203;-76
2024/01/31 07:11:22;;;;;;;19.47;13.13;;;7.20;99.90;;;;;;5070667;28;20183;-76
2024/01/31 07:13:47;;;;;;;23.83;10.47;;;7.30;99.90;;;;;;5071287;28;20180;-78
2024/01/31 07:16:13;;;;;;;11.10;9.13;;;7.30;99.90;;;;;;5071247;28;20237;-78
2024/01/31 07:18:41;;;;;;;17.57;9.40;;;7.20;99.90;;;;;;5036580;28;20445;-77
2024/01/31 07:21:06;;;;;;;14.37;8.20;;;7.30;99.90;;;;;;5070464;28;20421;-78
2024/01/31 07:23:32;;;;;;;15.17;8.37;;;7.30;99.90;;;;;;5052219;28;20425;-77
2024/01/31 07:25:57;;;;;;;16.40;9.60;;;7.30;99.90;;;;;;5035523;28;20191;-78
2024/01/31 07:28:23;;;;;;;16.23;10.07;;;7.30;99.90;;;;;;5035410;28;20886;-78
2024/01/31 07:30:49;;;;;;;21.10;11.80;;;7.30;99.90;;;;;;5052222;28;20194;-77
2024/01/31 07:33:14;;;;;;;27.63;14.57;;;7.30;99.90;;;;;;5052612;28;20681;-77
2024/01/31 07:35:40;;;;;;;20.03;12.27;;;7.30;99.90;;;;;;5070886;28;20214;-77
2024/01/31 07:38:05;;;;;;;40.37;19.30;;;7.30;99.90;;;;;;5070471;28;20753;-77
2024/01/31 07:40:31;;;;;;;25.50;14.40;;;7.30;99.90;;;;;;5070973;28;20186;-77
2024/01/31 07:42:56;;;;;;;29.00;14.90;;;7.30;99.90;;;;;;5070498;28;20184;-77
2024/01/31 07:45:22;;;;;;;22.70;13.03;;;7.40;99.90;;;;;;5052708;28;20221;-78
2024/01/31 07:47:48;;;;;;;17.87;11.17;;;7.30;99.90;;;;;;5052761;28;20222;-77
2024/01/31 07:50:14;;;;;;;16.83;9.83;;;7.50;99.90;;;;;;5052665;28;20207;-78
2024/01/31 07:52:40;;;;;;;16.00;9.23;;;7.50;99.90;;;;;;5071176;28;20179;-76
2024/01/31 07:55:07;;;;;;;16.73;9.20;;;7.50;99.90;;;;;;5052389;28;20527;-77
2024/01/31 07:57:33;;;;;;;13.23;8.53;;;7.50;99.90;;;;;;5070635;28;20471;-77
2024/01/31 07:59:58;;;;;;;11.17;7.70;;;7.50;99.90;;;;;;5069944;28;20432;-78
2024/01/31 08:02:24;;;;;;;10.77;7.30;;;7.60;99.90;;;;;;5070108;28;20256;-78
2024/01/31 08:04:51;;;;;;;13.53;7.87;;;7.60;99.90;;;;;;5051246;28;20277;-78
2024/01/31 08:07:17;;;;;;;8.00;7.20;;;7.80;99.90;;;;;;5068672;28;20274;-77
2024/01/31 08:09:42;;;;;;;13.50;9.13;;;7.60;99.90;;;;;;5068645;28;20643;-78
2024/01/31 08:12:08;;;;;;;14.47;7.10;;;7.70;99.90;;;;;;5050530;28;20483;-78
2024/01/31 08:14:34;;;;;;;12.07;7.30;;;7.70;99.90;;;;;;5051023;28;20203;-78
2024/01/31 08:16:59;;;;;;;12.77;6.37;;;7.70;99.90;;;;;;5068699;28;20258;-78
2024/01/31 08:19:25;;;;;;;11.43;7.63;;;7.80;99.90;;;;;;5068619;28;20445;-78
2024/01/31 08:21:51;;;;;;;9.70;8.10;;;7.60;99.90;;;;;;5068284;28;20209;-77
2024/01/31 08:24:18;;;;;;;11.13;6.80;;;7.60;99.90;;;;;;5068808;28;20468;-78
2024/01/31 08:26:44;;;;;;;11.53;7.00;;;7.70;99.90;;;;;;5068790;28;20673;-77
2024/01/31 08:29:10;;;;;;;11.90;7.00;;;7.80;99.90;;;;;;5068286;28;20465;-77
2024/01/31 08:31:35;;;;;;;14.67;7.30;;;7.80;99.90;;;;;;5068420;28;20496;-77
2024/01/31 08:34:01;;;;;;;10.63;7.20;;;7.80;99.90;;;;;;5068444;28;20189;-77
2024/01/31 08:36:26;;;;;;;12.07;6.43;;;8.00;99.90;;;;;;5033397;28;20183;-77
2024/01/31 08:38:52;;;;;;;9.10;6.50;;;8.00;99.90;;;;;;5049602;28;20204;-77
2024/01/31 08:41:19;;;;;;;11.03;6.60;;;8.10;99.90;;;;;;5068202;28;20175;-77
2024/01/31 08:43:46;;;;;;;7.33;6.10;;;8.20;99.90;;;;;;5050616;28;20224;-78
2024/01/31 08:46:11;;;;;;;13.43;6.20;;;8.30;99.90;;;;;;5050008;28;20460;-78
2024/01/31 08:48:38;;;;;;;9.53;4.77;;;8.40;99.90;;;;;;5068130;28;20452;-77
2024/01/31 08:51:05;;;;;;;7.03;5.03;;;8.50;99.90;;;;;;5068081;28;20417;-76
2024/01/31 08:53:31;;;;;;;8.93;5.13;;;8.60;99.90;;;;;;5033031;28;20432;-78
2024/01/31 08:55:57;;;;;;;6.70;4.37;;;8.70;99.90;;;;;;5049455;28;20456;-78
2024/01/31 08:58:23;;;;;;;5.80;4.43;;;8.80;99.90;;;;;;5049475;28;20457;-77
2024/01/31 09:00:49;;;;;;;10.27;5.30;;;8.90;99.90;;;;;;5067425;28;20179;-76
2024/01/31 09:03:14;;;;;;;6.17;4.27;;;8.90;99.90;;;;;;5067725;28;20799;-78
2024/01/31 09:05:40;;;;;;;5.40;4.70;;;9.10;99.90;;;;;;5068353;28;20574;-78
2024/01/31 09:08:06;;;;;;;21.30;8.87;;;9.00;99.90;;;;;;5049626;28;20202;-78
2024/01/31 09:10:32;;;;;;;18.80;10.00;;;8.90;99.90;;;;;;5067813;28;20186;-77
2024/01/31 09:12:57;;;;;;;21.07;10.50;;;8.60;99.90;;;;;;5049373;28;20278;-77
2024/01/31 09:15:23;;;;;;;15.07;11.30;;;8.50;99.90;;;;;;5049681;28;20211;-78
2024/01/31 09:17:48;;;;;;;13.90;10.50;;;8.40;99.90;;;;;;5049432;28;20560;-78
2024/01/31 09:20:14;;;;;;;18.67;10.53;;;8.40;99.90;;;;;;5067719;28;20182;-78
2024/01/31 09:22:40;;;;;;;20.37;10.83;;;8.40;99.90;;;;;;5049706;28;20183;-78
2024/01/31 09:25:06;;;;;;;14.83;9.90;;;8.40;99.90;;;;;;5049456;28;20691;-78
2024/01/31 09:27:32;;;;;;;14.10;9.93;;;8.40;99.90;;;;;;5049314;28;20230;-77
2024/01/31 09:29:58;;;;;;;14.07;9.90;;;8.40;99.90;;;;;;5067349;28;20872;-78
2024/01/31 09:32:23;;;;;;;15.50;8.67;;;8.60;99.90;;;;;;5067012;28;20524;-78
2024/01/31 09:34:49;;;;;;;13.93;9.60;;;8.50;99.90;;;;;;5069051;28;20238;-78
2024/01/31 09:37:15;;;;;;;12.73;9.40;;;8.70;99.90;;;;;;5067359;28;20238;-77
2024/01/31 09:39:40;;;;;;;11.57;9.23;;;8.60;99.90;;;;;;5032552;28;20321;-77
2024/01/31 09:42:07;;;;;;;16.07;9.30;;;8.60;99.90;;;;;;5067381;28;20429;-77
2024/01/31 09:44:35;;;;;;;21.27;10.40;;;8.70;99.90;;;;;;5067362;28;20188;-77
2024/01/31 09:47:01;;;;;;;10.97;9.10;;;8.70;99.90;;;;;;5067382;28;20425;-77
2024/01/31 09:49:27;;;;;;;13.57;9.20;;;8.70;99.90;;;;;;5066992;28;20442;-78
2024/01/31 09:51:59;;;;;;;14.20;9.17;;;8.80;99.90;;;;;;5048846;28;20486;-78
2024/01/31 09:54:26;;;;;;;11.70;8.60;;;8.80;99.90;;;;;;5032649;28;20226;-78
2024/01/31 09:56:52;;;;;;;13.60;9.57;;;8.80;99.90;;;;;;5066836;28;20887;-78
2024/01/31 09:59:18;;;;;;;13.50;9.67;;;8.80;99.90;;;;;;5032006;28;20484;-78
2024/01/31 10:01:44;;;;;;;16.50;10.00;;;8.90;99.90;;;;;;5048962;28;20552;-78
2024/01/31 10:04:10;;;;;;;14.10;8.90;;;8.90;99.90;;;;;;5067065;28;20274;-78
2024/01/31 10:06:36;;;;;;;16.33;10.23;;;8.90;99.90;;;;;;5067032;28;20842;-78
2024/01/31 10:09:03;;;;;;;14.37;9.73;;;9.00;99.90;;;;;;5066976;28;20203;-78
2024/01/31 10:11:31;;;;;;;15.43;9.30;;;9.10;99.90;;;;;;5048789;28;20565;-76
2024/01/31 10:13:57;;;;;;;14.30;9.67;;;9.10;99.90;;;;;;5049445;28;20417;-78
2024/01/31 10:16:23;;;;;;;14.87;9.27;;;9.10;99.90;;;;;;5071011;28;20468;-78
2024/01/31 10:18:50;;;;;;;22.23;11.73;;;9.30;99.90;;;;;;5052957;28;20440;-78
2024/01/31 10:21:19;;;;;;;20.67;13.57;;;9.30;99.90;;;;;;5052965;28;21168;-77
2024/01/31 10:24:04;;;;;;;14.27;9.20;;;9.20;99.90;;;;;;5052963;28;20429;-76
2024/01/31 10:26:32;;;;;;;14.77;9.90;;;9.20;99.90;;;;;;5067662;28;20421;-78
2024/01/31 10:29:01;;;;;;;14.27;8.43;;;9.10;99.90;;;;;;5067849;28;20541;-78
2024/01/31 10:31:28;;;;;;;19.70;9.40;;;9.40;99.90;;;;;;5049102;28;21251;-77
2024/01/31 10:33:57;;;;;;;14.40;9.40;;;9.60;99.90;;;;;;5048143;28;20418;-78
2024/01/31 10:36:23;;;;;;;19.37;11.57;;;9.60;99.90;;;;;;5048019;28;20476;-78
2024/01/31 10:38:50;;;;;;;12.03;9.83;;;9.60;99.90;;;;;;5066330;28;20441;-78
2024/01/31 10:41:19;;;;;;;22.43;10.20;;;9.70;99.90;;;;;;5066430;28;20861;-78
2024/01/31 10:43:48;;;;;;;12.73;9.00;;;9.80;99.90;;;;;;5067181;28;20416;-78
2024/01/31 10:46:14;;;;;;;16.13;9.97;;;9.80;99.90;;;;;;5071821;28;20410;-76
2024/01/31 10:48:40;;;;;;;15.20;8.70;;;9.90;99.90;;;;;;5055236;28;20473;-78
2024/01/31 10:51:08;;;;;;;11.50;8.80;;;10.20;99.90;;;;;;5055743;28;20421;-78
2024/01/31 10:53:34;;;;;;;9.87;7.40;;;10.20;99.90;;;;;;5054846;28;20213;-77
2024/01/31 10:56:00;;;;;;;10.27;5.77;;;10.30;99.90;;;;;;5071940;28;20469;-77
2024/01/31 10:58:27;;;;;;;8.90;5.50;;;10.50;99.90;;;;;;5071735;28;20438;-77
2024/01/31 11:00:53;;;;;;;9.20;5.80;;;10.50;99.90;;;;;;5069756;28;20790;-78
2024/01/31 11:03:18;;;;;;;8.17;5.50;;;10.70;99.90;;;;;;5051501;28;20421;-77
2024/01/31 11:05:44;;;;;;;8.57;4.87;;;10.70;99.90;;;;;;5069942;28;20655;-77
2024/01/31 11:08:20;;;;;;;9.47;6.50;;;10.80;99.90;;;;;;5069937;28;20215;-77
2024/01/31 11:10:45;;;;;;;13.10;5.90;;;10.80;99.90;;;;;;5051685;28;20188;-76
2024/01/31 11:13:11;;;;;;;10.03;5.83;;;10.70;99.90;;;;;;5070328;28;20417;-76
2024/01/31 11:15:37;;;;;;;10.47;5.47;;;10.70;99.90;;;;;;5070244;28;20759;-76
2024/01/31 11:18:11;;;;;;;8.50;6.03;;;10.80;99.90;;;;;;5070154;28;20216;-77
2024/01/31 11:20:49;;;;;;;6.77;5.30;;;10.90;99.90;;;;;;5070209;28;20402;-77
2024/01/31 11:23:23;;;;;;;10.87;6.80;;;11.00;99.90;;;;;;5053894;28;20422;-77
2024/01/31 11:25:50;;;;;;;8.23;5.93;;;11.00;99.90;;;;;;5070507;28;20481;-76
2024/01/31 11:28:17;;;;;;;12.97;6.20;;;11.00;99.90;;;;;;5071460;28;20572;-76
2024/01/31 11:30:50;;;;;;;8.40;5.37;;;11.00;99.90;;;;;;5054274;28;20425;-76
2024/01/31 11:33:16;;;;;;;10.37;6.10;;;11.00;99.90;;;;;;5070419;28;20403;-76
2024/01/31 11:35:42;;;;;;;11.07;5.80;;;11.00;99.90;;;;;;5052318;28;20482;-75
2024/01/31 11:38:08;;;;;;;8.87;6.40;;;11.00;99.90;;;;;;5035497;28;20229;-77
2024/01/31 11:40:34;;;;;;;10.60;6.17;;;11.10;99.90;;;;;;5052417;28;21060;-77
2024/01/31 11:43:00;;;;;;;12.80;7.37;;;11.10;99.90;;;;;;5019239;28;20425;-77
2024/01/31 11:45:26;;;;;;;10.27;5.90;;;11.20;99.90;;;;;;5069983;28;20425;-76
2024/01/31 11:47:54;;;;;;;8.10;5.83;;;11.10;99.90;;;;;;5070356;28;20256;-76
2024/01/31 11:50:20;;;;;;;8.97;5.80;;;11.20;99.90;;;;;;5070470;28;20496;-77
2024/01/31 11:52:46;;;;;;;9.40;6.07;;;11.30;99.90;;;;;;5036805;28;20849;-77
2024/01/31 11:55:12;;;;;;;11.97;5.97;;;11.50;99.90;;;;;;5051980;28;20488;-76
2024/01/31 11:57:38;;;;;;;11.10;5.70;;;11.30;99.90;;;;;;5069546;28;20967;-77
2024/01/31 12:00:05;;;;;;;10.93;6.37;;;11.40;99.90;;;;;;5069297;28;20797;-77
2024/01/31 12:02:32;;;;;;;10.37;6.80;;;11.40;99.90;;;;;;5052528;28;20459;-78
2024/01/31 12:04:58;;;;;;;13.70;6.60;;;11.30;99.90;;;;;;5052333;28;20415;-77
2024/01/31 12:07:23;;;;;;;26.23;7.57;;;11.40;99.90;;;;;;5069679;28;20430;-77
2024/01/31 12:09:50;;;;;;;13.17;6.63;;;11.40;99.90;;;;;;5051118;28;20211;-77
2024/01/31 12:12:15;;;;;;;9.43;6.80;;;11.40;99.90;;;;;;5069053;28;20200;-77
2024/01/31 12:14:41;;;;;;;9.40;6.40;;;11.40;99.90;;;;;;5069128;28;21106;-77
2024/01/31 12:17:24;;;;;;;9.90;6.80;;;11.30;99.90;;;;;;5050566;28;20185;-77
2024/01/31 12:20:01;;;;;;;7.23;6.37;;;11.30;99.90;;;;;;5050334;28;20237;-77
2024/01/31 12:22:26;;;;;;;12.77;6.50;;;11.40;99.90;;;;;;5069322;28;20865;-77
2024/01/31 12:24:52;;;;;;;11.63;7.03;;;11.40;99.90;;;;;;5050608;28;20532;-77
2024/01/31 12:27:18;;;;;;;11.90;6.40;;;11.40;99.90;;;;;;5068461;28;20238;-77
2024/01/31 12:29:46;;;;;;;12.30;7.03;;;11.30;99.90;;;;;;5068810;28;20201;-77
2024/01/31 12:32:12;;;;;;;13.43;6.37;;;11.30;99.90;;;;;;5050814;28;20186;-77
2024/01/31 12:34:37;;;;;;;10.80;6.63;;;11.40;99.90;;;;;;5069044;28;20493;-76
2024/01/31 12:37:03;;;;;;;9.47;6.27;;;11.40;99.90;;;;;;5050804;28;20444;-77
2024/01/31 12:39:29;;;;;;;13.03;6.43;;;11.40;99.90;;;;;;5050637;28;20198;-77
2024/01/31 12:41:55;;;;;;;15.73;7.47;;;11.50;99.90;;;;;;5068648;28;20217;-77